Station: Portable Npws Nsw02  

  Atmospheric Gas Attenuation - ITU Rec 676-11   ----------------- dB/100km -----------------
Date Time Temp RH % AH g/m3 Dew Point Wind Direction Speed kph Gust kph Barometer mB Rainfall Since 9am 24GHz 47GHz 76GHz 122GHz 134GHz 241GHz
08/05 12:20 10.6 61 5.96 3.4 30 37 1013.1 0 14.1 22.6 30.9 80.7 67.9 231.2
08/05 12:10 10.2 62 5.9 3.3 32 37 1013.1 0 14.0 22.6 30.8 80.5 67.5 229.7
08/05 12:00 9.8 65 6.03 3.5 35 39 1013.1 0 14.3 22.9 31.5 82.2 69.5 236.6
08/05 11:50 9.5 65 5.92 3.3 32 37 1013.1 0 14.0 22.8 31.2 81.4 68.3 232.6
08/05 11:40 8.8 68 5.92 3.2 37 46 1013.1 0 14.1 23.0 31.5 82.1 69.0 234.7
08/05 11:30 8.6 69 5.93 3.3 41 52 1013.1 0 14.1 23.1 31.6 82.4 69.3 235.7
08/05 11:20 8.6 69 5.93 3.2 39 44 1013.1 0 14.1 23.1 31.6 82.4 69.3 235.7
08/05 11:10 8.5 69 5.89 3.2 39 43 1013.1 0 14.0 23.0 31.5 82.1 68.8 234.2
08/05 11:00 8.5 69 5.89 3.1 35 39 1013.1 0 14.0 23.0 31.5 82.1 68.8 234.2
08/05 10:50 8.3 69 5.82 2.9 35 41 1013.1 0 13.9 23.0 31.3 81.6 68.1 231.6
08/05 10:40 8.2 69 5.78 2.9 33 41 1013.1 0 13.8 22.9 31.2 81.3 67.7 230.1
08/05 10:30 8.1 69 5.74 2.7 32 33 1013.1 0 13.7 22.9 31.0 81.0 67.3 228.6
08/05 10:20 7.6 70 5.64 2.5 35 41 1013.1 0 13.5 22.9 30.8 80.5 66.4 225.6
08/05 10:10 7.5 70 5.61 2.4 35 43 1013.1 0 13.5 22.8 30.8 80.3 66.1 224.5
08/05 10:00 7.3 72 5.69 2.6 33 44 1013.1 0 13.6 23.0 31.2 81.3 67.3 228.7
08/05 09:50 7.3 71 5.61 2.5 30 33 1013.1 0 13.5 22.9 30.8 80.5 66.3 225.1
08/05 09:40 7.2 71 5.58 2.4 33 35 1013.1 0 13.4 22.9 30.8 80.3 66.0 224.0
08/05 09:30 7 71 5.5 2.2 30 35 1013.1 0 13.2 22.8 30.5 79.6 65.1 221.0
08/05 09:20 6.6 72 5.44 2 35 43 1013.1 0 13.1 22.8 30.4 79.4 64.7 219.4
08/05 09:10 6.4 73 5.44 2 33 39 1013.1 0 13.1 22.8 30.5 79.6 64.9 219.9
08/05 09:00 6.3 73 5.41 1.8 30 37 1013.1 0 13.1 22.8 30.4 79.4 64.6 218.9
08/05 08:50 6 74 5.37 1.7 33 37 1013.1 0 13.0 22.8 30.4 79.3 64.3 217.9
08/05 08:40 5.7 75 5.34 1.7 35 37 1013.1 0 12.9 22.9 30.4 79.3 64.1 217.3
08/05 08:30 5.6 75 5.31 1.6 32 43 1013.1 0 12.9 22.8 30.3 79.1 63.8 216.3
08/05 08:20 5.4 76 5.31 1.6 37 46 1013.1 0 12.9 22.9 30.4 79.3 64.0 216.8
08/05 08:10 5.4 76 5.31 1.6 32 39 1013.1 0 12.9 22.9 30.4 79.3 64.0 216.8
08/05 08:00 5.1 78 5.34 1.6 37 43 1013.1 0 13.0 23.0 30.6 79.9 64.6 219.0
08/05 07:50 4.9 79 5.34 1.5 35 41 1013.1 0 13.0 23.1 30.7 80.1 64.8 219.6
08/05 07:40 4.7 79 5.27 1.4 41 44 1013.1 0 12.8 23.0 30.5 79.5 64.1 216.9
08/05 07:30 4.5 80 5.26 1.3 39 44 1013.1 0 12.8 23.0 30.5 79.6 64.1 217.0
08/05 07:20 4.1 81 5.19 1.2 39 43 1013.1 0 12.7 23.0 30.4 79.3 63.5 214.8
08/05 07:10 3.9 82 5.18 1.1 39 48 1013.1 0 12.7 23.1 30.5 79.4 63.5 214.9
08/05 07:00 3.8 82 5.15 1.1 39 43 1013.1 0 12.6 23.1 30.4 79.2 63.2 213.8
08/05 06:50 3.8 82 5.15 1 41 48 1013.1 0 12.6 23.1 30.4 79.2 63.2 213.8
08/05 06:40 3.7 82 5.11 0.9 43 46 1013.1 0 12.5 23.0 30.2 78.8 62.8 212.2
08/05 06:30 3.7 82 5.11 1 41 48 1013.1 0 12.5 23.0 30.2 78.8 62.8 212.2
08/05 06:20 3.7 82 5.11 1 41 46 1013.1 0 12.5 23.0 30.2 78.8 62.8 212.2
08/05 06:10 3.7 82 5.11 1 41 48 1013.1 0 12.5 23.0 30.2 78.8 62.8 212.2
08/05 06:00 3.6 82 5.08 0.9 37 44 1013.1 0 12.4 23.0 30.2 78.6 62.5 211.1
08/05 05:50 3.6 82 5.08 0.8 35 43 1013.1 0 12.4 23.0 30.2 78.6 62.5 211.1
08/05 05:40 3.6 82 5.08 0.8 32 35 1013.1 0 12.4 23.0 30.2 78.6 62.5 211.1
08/05 05:30 3.5 82 5.05 0.7 28 35 1013.1 0 12.4 23.0 30.1 78.4 62.1 210.0
08/05 05:20 3.6 82 5.08 0.8 33 39 1013.1 0 12.4 23.0 30.2 78.6 62.5 211.1
08/05 05:10 3.6 82 5.08 0.8 33 39 1013.1 0 12.4 23.0 30.2 78.6 62.5 211.1
08/05 05:00 3.4 82 5.01 0.7 30 43 1013.1 0 12.3 22.9 30.0 78.1 61.7 208.4
08/05 04:50 3.4 81 4.95 0.4 26 35 1013.1 0 12.2 22.8 29.7 77.4 60.9 205.6
08/05 04:40 3.2 81 4.89 0.2 35 41 1013.1 0 12.1 22.8 29.6 77.0 60.3 203.4
08/05 04:30 3.1 81 4.85 0.1 35 41 1013.1 0 12.0 22.7 29.4 76.7 59.8 201.8
08/05 04:20 3 81 4.82 0 33 41 1013.1 0 11.9 22.7 29.4 76.5 59.5 200.7
08/05 04:10 3 80 4.76 -0.1 39 44 1013.1 0 11.8 22.6 29.1 75.8 58.7 197.9
08/05 04:00 3 79 4.7 -0.2 37 48 1013.1 0 11.6 22.5 28.9 75.2 57.9 195.2
08/05 03:50 3 79 4.7 -0.2 43 50 1013.1 0 11.6 22.5 28.9 75.2 57.9 195.2
08/05 03:40 2.9 79 4.67 -0.3 39 43 1013.1 0 11.6 22.5 28.8 75.0 57.6 194.0
08/05 03:30 2.9 78 4.61 -0.5 39 43 1013.1 0 11.5 22.4 28.6 74.3 56.8 191.3
08/05 03:20 2.8 79 4.64 -0.5 43 46 1013.1 0 11.5 22.5 28.7 74.7 57.3 192.9
08/05 03:10 2.8 78 4.58 -0.6 37 44 1013.1 0 11.4 22.4 28.5 74.1 56.5 190.2
08/05 03:00 2.7 79 4.61 -0.6 35 41 1013.1 0 11.5 22.5 28.6 74.5 57.0 191.8
08/05 02:50 2.7 79 4.61 -0.6 35 43 1013.1 0 11.5 22.5 28.6 74.5 57.0 191.8
08/05 02:40 2.7 79 4.61 -0.6 39 44 1013.1 0 11.5 22.5 28.6 74.5 57.0 191.8
08/05 02:30 2.7 79 4.61 -0.6 35 44 1013.1 0 11.5 22.5 28.6 74.5 57.0 191.8
08/05 02:20 2.7 79 4.61 -0.6 37 43 1013.1 0 11.5 22.5 28.6 74.5 57.0 191.8
08/05 02:10 2.8 78 4.58 -0.6 30 33 1013.1 0 11.4 22.4 28.5 74.1 56.5 190.2
08/05 02:00 2.8 78 4.58 -0.7 30 33 1013.1 0 11.4 22.4 28.5 74.1 56.5 190.2
08/05 01:50 2.7 79 4.61 -0.6 30 37 1013.1 0 11.5 22.5 28.6 74.5 57.0 191.8
08/05 01:40 2.8 78 4.58 -0.6 26 32 1013.1 0 11.4 22.4 28.5 74.1 56.5 190.2
08/05 01:30 2.8 78 4.58 -0.7 28 33 1013.1 0 11.4 22.4 28.5 74.1 56.5 190.2
08/05 01:20 2.7 78 4.55 -0.7 24 32 1013.1 0 11.3 22.4 28.4 73.9 56.2 189.0
08/05 01:10 2.8 77 4.52 -0.8 28 35 1013.1 0 11.3 22.3 28.2 73.5 55.7 187.4
08/05 01:00 2.7 78 4.55 -0.7 28 30 1013.1 0 11.3 22.4 28.4 73.9 56.2 189.0
08/05 00:50 2.7 78 4.55 -0.8 26 30 1013.1 0 11.3 22.4 28.4 73.9 56.2 189.0
08/05 00:40 2.6 78 4.52 -0.9 26 33 1013.1 0 11.3 22.3 28.3 73.7 55.9 187.9
08/05 00:30 2.6 77 4.46 -1 32 37 1013.1 0 11.1 22.3 28.1 73.0 55.1 185.1
08/05 00:10 2.4 77 4.4 -1.2 32 35 1013.1 0 11.0 22.2 27.9 72.6 54.5 182.9
08/05 00:00 2.4 76 4.34 -1.4 28 32 1013.1 0 10.9 22.1 27.7 72.0 53.7 180.1
07/05 23:50 2.4 75 4.29 -1.5 24 32 1013.1 0 10.8 22.0 27.5 71.4 53.0 177.9
07/05 23:40 2.3 75 4.26 -1.6 20 28 1013.1 0 10.7 22.0 27.4 71.2 52.7 176.7
07/05 23:30 2.4 75 4.29 -1.6 24 30 1013.1 0 10.8 22.0 27.5 71.4 53.0 177.9
07/05 23:20 2.4 74 4.23 -1.7 22 28 1013.1 0 10.7 21.9 27.2 70.8 52.3 175.2
07/05 23:10 2.4 74 4.23 -1.7 24 32 1013.1 0 10.7 21.9 27.2 70.8 52.3 175.2
07/05 23:00 2.4 74 4.23 -1.7 17 20 1013.1 0 10.7 21.9 27.2 70.8 52.3 175.2
07/05 22:50 2.5 73 4.2 -1.8 17 20 1013.1 0 10.6 21.9 27.1 70.4 51.8 173.6
07/05 22:40 2.5 73 4.2 -1.8 13 19 1013.1 0 10.6 21.9 27.1 70.4 51.8 173.6
07/05 22:30 2.6 73 4.23 -1.8 13 17 1013.1 0 10.7 21.9 27.2 70.6 52.1 174.7
07/05 22:20 2.6 72 4.17 -1.9 13 19 1013.1 0 10.5 21.8 26.9 70.0 51.4 172.0
07/05 22:10 2.6 72 4.17 -2 19 24 1013.1 0 10.5 21.8 26.9 70.0 51.4 172.0
07/05 22:00 2.6 71 4.11 -2.1 19 22 1013.1 0 10.4 21.7 26.7 69.4 50.6 169.3
07/05 21:50 2.7 71 4.14 -2 20 24 1013.1 0 10.5 21.7 26.8 69.6 50.9 170.4
07/05 21:40 2.7 70 4.08 -2.2 19 24 1013.1 0 10.3 21.6 26.6 69.0 50.2 167.8
07/05 21:30 2.7 70 4.08 -2.2 17 20 1013.1 0 10.3 21.6 26.6 69.0 50.2 167.8
07/05 21:20 2.8 69 4.05 -2.2 17 22 1013.1 0 10.3 21.6 26.4 68.6 49.7 166.2
07/05 21:10 2.9 68 4.02 -2.3 22 28 1013.1 0 10.2 21.5 26.3 68.2 49.3 164.7
07/05 21:00 2.9 68 4.02 -2.3 26 39 1013.1 0 10.2 21.5 26.3 68.2 49.3 164.7
07/05 20:50 3 68 4.05 -2.3 28 35 1013.1 0 10.3 21.5 26.4 68.4 49.6 165.8
07/05 20:40 3 68 4.05 -2.3 22 32 1013.1 0 10.3 21.5 26.4 68.4 49.6 165.8
07/05 20:30 3.1 67 4.01 -2.4 26 30 1013.1 0 10.2 21.4 26.2 67.9 49.0 163.8
07/05 20:20 3.2 67 4.04 -2.4 30 35 1013.1 0 10.2 21.5 26.3 68.1 49.3 164.9
07/05 20:10 3.3 66 4.01 -2.5 28 35 1013.1 0 10.2 21.4 26.1 67.8 48.9 163.4
07/05 20:00 3.4 66 4.03 -2.4 26 28 1013.1 0 10.2 21.4 26.1 67.9 49.1 164.1
07/05 19:50 3.6 65 4.03 -2.4 22 37 1013.1 0 10.2 21.3 26.1 67.7 49.0 163.7
07/05 19:40 3.7 64 3.99 -2.4 22 32 1013.1 0 10.1 21.3 25.9 67.2 48.4 161.7

Last Refresh: 08-May-2026 12:10:18

Bureau of Meteorology